createdAt,value
2018-01-02T00:00:36.115Z,4.50
2018-01-02T00:03:05.154Z,4.40
2018-01-02T00:05:33.489Z,4.40
2018-01-02T00:08:01.813Z,4.30
2018-01-02T00:10:30.858Z,4.20
2018-01-02T00:12:59.181Z,4.20
2018-01-02T00:15:27.467Z,4.10
2018-01-02T00:17:55.795Z,4.10
2018-01-02T00:20:24.838Z,3.90
2018-01-02T00:22:53.281Z,3.80
2018-01-02T00:25:22.552Z,3.70
2018-01-02T00:27:50.822Z,3.70
2018-01-02T00:30:19.150Z,3.70
2018-01-02T00:32:47.497Z,3.80
2018-01-02T00:35:15.798Z,3.70
2018-01-02T00:37:44.136Z,3.60
2018-01-02T00:40:13.222Z,3.70
2018-01-02T00:42:41.890Z,3.70
2018-01-02T00:45:10.179Z,3.80
2018-01-02T00:47:38.472Z,3.90
2018-01-02T00:50:06.911Z,3.90
2018-01-02T00:52:36.006Z,3.90
2018-01-02T00:55:04.464Z,3.90
2018-01-02T00:57:32.987Z,3.90
2018-01-02T01:00:01.262Z,4.00
2018-01-02T01:02:29.752Z,3.90
2018-01-02T01:04:58.166Z,4.00
2018-01-02T01:07:26.447Z,4.10
2018-01-02T01:09:54.820Z,4.10
2018-01-02T01:12:23.075Z,4.20
2018-01-02T01:14:51.534Z,4.30
2018-01-02T01:17:20.742Z,4.40
2018-01-02T01:19:49.022Z,4.40
2018-01-02T01:22:17.362Z,4.30
2018-01-02T01:24:45.638Z,4.30
2018-01-02T01:27:13.926Z,4.30
2018-01-02T01:29:42.258Z,4.40
2018-01-02T01:32:10.586Z,4.40
2018-01-02T01:34:39.705Z,4.50
2018-01-02T01:37:08.746Z,4.60
2018-01-02T01:39:37.129Z,4.60
2018-01-02T01:42:05.417Z,4.50
2018-01-02T01:47:08.494Z,4.50
2018-01-02T01:49:36.869Z,4.50
2018-01-02T01:52:05.210Z,4.50
2018-01-02T01:54:33.544Z,4.60
2018-01-02T01:57:01.819Z,4.60
2018-01-02T01:59:30.430Z,4.50
2018-01-02T02:01:58.719Z,4.60
2018-01-02T02:04:27.038Z,4.70
2018-01-02T02:06:55.398Z,4.80
2018-01-02T02:09:23.686Z,4.80
2018-01-02T02:11:51.961Z,4.80
2018-01-02T02:14:20.304Z,4.80
2018-01-02T02:16:49.355Z,4.60
2018-01-02T02:19:17.683Z,4.60
2018-01-02T02:21:46.906Z,4.70
2018-01-02T02:24:15.230Z,4.80
2018-01-02T02:26:43.516Z,4.90
2018-01-02T02:29:12.063Z,4.80
2018-01-02T02:31:40.346Z,4.90
2018-01-02T02:34:10.139Z,4.90
2018-01-02T02:36:38.459Z,4.90
2018-01-02T02:39:06.739Z,4.90
2018-01-02T02:41:35.236Z,4.80
2018-01-02T02:44:03.510Z,4.80
2018-01-02T02:46:31.843Z,4.80
2018-01-02T02:49:00.933Z,4.70
2018-01-02T02:51:30.099Z,4.80
2018-01-02T02:53:58.462Z,4.80
2018-01-02T02:56:27.502Z,4.80
2018-01-02T02:58:55.839Z,4.80
2018-01-02T03:01:24.119Z,4.80
2018-01-02T03:03:52.451Z,4.80
2018-01-02T03:06:20.726Z,4.70
2018-01-02T03:08:49.817Z,4.70
2018-01-02T03:11:18.098Z,4.70
2018-01-02T03:13:46.386Z,4.80
2018-01-02T03:16:14.974Z,4.70
2018-01-02T03:18:43.251Z,4.70
2018-01-02T03:21:11.551Z,4.80
2018-01-02T03:23:39.874Z,4.80
2018-01-02T03:26:08.935Z,4.80
2018-01-02T03:28:37.441Z,4.80
2018-01-02T03:31:05.736Z,4.70
2018-01-02T03:33:34.034Z,4.70
2018-01-02T03:36:02.714Z,4.70
2018-01-02T03:38:30.996Z,4.60
2018-01-02T03:40:59.274Z,4.60
2018-01-02T03:43:27.606Z,4.50
2018-01-02T03:45:55.890Z,4.50
2018-01-02T03:48:24.210Z,4.60
2018-01-02T03:50:52.494Z,4.50
2018-01-02T03:53:20.818Z,4.50
2018-01-02T03:55:49.103Z,4.50
2018-01-02T03:58:17.447Z,4.50
2018-01-02T04:00:46.499Z,4.60
2018-01-02T04:03:14.778Z,4.60
2018-01-02T04:05:43.115Z,4.60
2018-01-02T04:08:11.390Z,4.50
2018-01-02T04:10:39.730Z,4.50
2018-01-02T04:13:08.778Z,4.50
2018-01-02T04:15:37.106Z,4.50
2018-01-02T04:18:06.156Z,4.60
2018-01-02T04:20:34.490Z,4.60
2018-01-02T04:23:02.770Z,4.50
2018-01-02T04:25:31.050Z,4.50
2018-01-02T04:27:59.382Z,4.60
2018-01-02T04:30:28.425Z,4.60
2018-01-02T04:32:57.046Z,4.60
2018-01-02T04:35:25.327Z,4.60
2018-01-02T04:37:53.612Z,4.70
2018-01-02T04:40:21.947Z,4.60
2018-01-02T04:42:51.046Z,4.60
2018-01-02T04:45:19.326Z,4.60
2018-01-02T04:47:47.606Z,4.60
2018-01-02T04:50:17.450Z,4.60
2018-01-02T04:52:46.501Z,4.60
2018-01-02T04:55:14.774Z,4.60
2018-01-02T04:57:43.110Z,4.60
2018-01-02T05:00:11.451Z,4.60
2018-01-02T05:02:39.778Z,4.70
2018-01-02T05:05:08.058Z,4.70
2018-01-02T05:07:36.394Z,4.70
2018-01-02T05:10:04.667Z,4.80
2018-01-02T05:12:32.946Z,4.80
2018-01-02T05:15:01.323Z,4.80
2018-01-02T05:17:29.606Z,4.80
2018-01-02T05:19:58.026Z,4.80
2018-01-02T05:22:26.308Z,4.80
2018-01-02T05:24:54.590Z,4.80
2018-01-02T05:27:23.087Z,4.80
2018-01-02T05:29:51.434Z,4.90
2018-01-02T05:32:19.714Z,4.90
2018-01-02T05:34:48.051Z,4.90
2018-01-02T05:37:16.383Z,4.90
2018-01-02T05:39:45.430Z,4.90
2018-01-02T05:42:13.759Z,4.90
2018-01-02T05:44:42.034Z,4.90
2018-01-02T05:47:10.527Z,5.00
2018-01-02T05:49:40.318Z,5.00
2018-01-02T05:52:08.603Z,5.00
2018-01-02T05:54:37.032Z,5.10
2018-01-02T05:57:05.302Z,4.90
2018-01-02T05:59:33.639Z,4.90
2018-01-02T06:02:01.975Z,4.90
2018-01-02T06:04:30.275Z,4.90
2018-01-02T06:06:58.613Z,4.90
2018-01-02T06:09:26.979Z,5.00
2018-01-02T06:11:55.258Z,5.00
2018-01-02T06:14:23.602Z,5.00
2018-01-02T06:16:51.922Z,4.90
2018-01-02T06:19:20.198Z,5.00
2018-01-02T06:21:48.530Z,5.00
2018-01-02T06:24:17.634Z,5.10
2018-01-02T06:26:46.693Z,5.00
2018-01-02T06:29:15.110Z,5.00
2018-01-02T06:31:43.395Z,5.00
2018-01-02T06:34:11.670Z,4.90
2018-01-02T06:36:40.007Z,5.00
2018-01-02T06:39:09.050Z,5.00
2018-01-02T06:41:37.331Z,5.00
2018-01-02T06:44:05.656Z,5.00
2018-01-02T06:46:33.938Z,4.90
2018-01-02T06:49:02.348Z,4.90
2018-01-02T06:51:30.635Z,4.90
2018-01-02T06:53:58.916Z,4.90
2018-01-02T06:56:27.254Z,5.00
2018-01-02T06:58:55.534Z,4.90
2018-01-02T07:01:24.578Z,4.90
2018-01-02T07:03:52.914Z,4.90
2018-01-02T07:06:21.238Z,4.80
2018-01-02T07:08:49.523Z,4.80
2018-01-02T07:11:17.866Z,4.70
2018-01-02T07:13:46.151Z,4.70
2018-01-02T07:16:14.650Z,4.70
2018-01-02T07:18:42.939Z,4.70
2018-01-02T07:21:11.214Z,4.60
2018-01-02T07:23:39.547Z,4.60
2018-01-02T07:26:08.593Z,4.60
2018-01-02T07:28:36.869Z,4.60
2018-01-02T07:31:05.209Z,4.60
2018-01-02T07:33:33.534Z,4.60
2018-01-02T07:36:01.826Z,4.70
2018-01-02T07:38:30.154Z,4.60
2018-01-02T07:40:58.501Z,4.60
2018-01-02T07:43:26.858Z,4.60
2018-01-02T07:45:55.158Z,4.70
2018-01-02T07:48:23.530Z,4.70
2018-01-02T07:50:51.886Z,4.60
2018-01-02T07:53:20.171Z,4.70
2018-01-02T07:55:48.602Z,4.70
2018-01-02T07:58:16.886Z,4.70
2018-01-02T08:00:45.282Z,4.70
2018-01-02T08:03:13.568Z,4.50
2018-01-02T08:05:41.853Z,4.50
2018-01-02T08:08:10.187Z,4.30
2018-01-02T08:10:39.243Z,4.10
2018-01-02T08:13:07.526Z,4.00
2018-01-02T08:15:35.875Z,3.90
2018-01-02T08:18:04.222Z,4.00
2018-01-02T08:20:32.565Z,4.10
2018-01-02T08:23:00.926Z,4.10
2018-01-02T08:25:29.210Z,4.10
2018-01-02T08:27:57.512Z,4.00
2018-01-02T08:30:26.704Z,4.00
2018-01-02T08:32:54.991Z,4.00
2018-01-02T08:35:23.278Z,4.10
2018-01-02T08:37:51.618Z,4.10
2018-01-02T08:40:19.910Z,4.10
2018-01-02T08:42:48.255Z,4.20
2018-01-02T08:45:16.534Z,4.10
2018-01-02T08:47:44.820Z,4.20
2018-01-02T08:50:13.146Z,4.20
2018-01-02T08:52:41.502Z,4.10
2018-01-02T08:55:09.884Z,4.10
2018-01-02T08:57:38.158Z,4.10
2018-01-02T09:00:06.879Z,4.10
2018-01-02T09:02:35.158Z,4.10
2018-01-02T09:05:03.447Z,4.20
2018-01-02T09:07:31.774Z,4.10
2018-01-02T09:10:00.823Z,4.10
2018-01-02T09:12:34.931Z,4.10
2018-01-02T09:15:03.238Z,4.20
2018-01-02T09:17:31.586Z,4.10
2018-01-02T09:20:00.630Z,4.20
2018-01-02T09:22:29.159Z,4.20
2018-01-02T09:24:57.447Z,4.20
2018-01-02T09:27:25.725Z,4.30
2018-01-02T09:29:54.083Z,4.30
2018-01-02T09:32:22.366Z,4.30
2018-01-02T09:34:50.814Z,4.20
2018-01-02T09:37:19.101Z,4.20
2018-01-02T09:39:47.373Z,4.20
2018-01-02T09:42:15.722Z,4.20
2018-01-02T09:44:44.794Z,4.20
2018-01-02T09:47:13.198Z,4.20
2018-01-02T09:49:41.972Z,4.30
2018-01-02T09:52:10.261Z,4.30
2018-01-02T09:54:38.586Z,4.30
2018-01-02T09:57:07.666Z,4.30
2018-01-02T09:59:35.947Z,4.20
2018-01-02T10:02:04.350Z,4.20
2018-01-02T10:04:33.056Z,4.30
2018-01-02T10:07:01.343Z,4.30
2018-01-02T10:09:29.617Z,4.30
2018-01-02T10:11:57.955Z,4.30
2018-01-02T10:14:26.994Z,4.40
2018-01-02T10:16:55.283Z,4.40
2018-01-02T10:19:23.618Z,4.30
2018-01-02T10:21:51.965Z,4.40
2018-01-02T10:24:20.290Z,4.40
2018-01-02T10:26:48.575Z,4.40
2018-01-02T10:29:16.922Z,4.50
2018-01-02T10:31:45.206Z,4.50
2018-01-02T10:34:14.110Z,4.50
2018-01-02T10:36:42.447Z,4.50
2018-01-02T10:39:10.734Z,4.50
2018-01-02T10:41:39.014Z,4.60
2018-01-02T10:44:07.355Z,4.60
2018-01-02T10:46:35.690Z,4.70
2018-01-02T10:49:04.048Z,4.70
2018-01-02T10:51:32.327Z,4.70
2018-01-02T10:54:00.660Z,4.80
2018-01-02T10:56:28.947Z,5.00
2018-01-02T10:58:57.286Z,5.00
2018-01-02T11:01:28.173Z,5.10
2018-01-02T11:03:56.450Z,5.10
2018-01-02T11:06:24.786Z,5.20
2018-01-02T11:08:53.062Z,5.20
2018-01-02T11:11:21.406Z,5.10
2018-01-02T11:13:53.540Z,5.20
2018-01-02T11:16:23.467Z,5.20
2018-01-02T11:18:51.743Z,5.20
2018-01-02T11:21:20.082Z,5.20
2018-01-02T11:23:48.435Z,5.20
2018-01-02T11:26:16.714Z,5.20
2018-01-02T11:28:45.055Z,5.30
2018-01-02T11:31:13.335Z,5.20
2018-01-02T11:33:42.426Z,5.20
2018-01-02T11:36:10.711Z,5.20
2018-01-02T11:38:38.991Z,5.30
2018-01-02T11:41:07.323Z,5.20
2018-01-02T11:43:35.671Z,5.30
2018-01-02T11:46:04.003Z,5.30
2018-01-02T11:48:32.283Z,5.30
2018-01-02T11:51:00.638Z,5.30
2018-01-02T11:53:28.966Z,5.40
2018-01-02T11:55:57.307Z,5.40
2018-01-02T11:58:25.591Z,5.40
2018-01-02T12:00:53.879Z,5.50
2018-01-02T12:03:22.230Z,5.50
2018-01-02T12:05:50.682Z,5.50
2018-01-02T12:08:18.965Z,5.60
2018-01-02T12:10:48.754Z,5.60
2018-01-02T12:13:17.096Z,5.60
2018-01-02T12:15:45.433Z,5.60
2018-01-02T12:18:13.771Z,5.70
2018-01-02T12:20:42.106Z,5.60
2018-01-02T12:23:10.395Z,5.60
2018-01-02T12:25:38.738Z,5.70
2018-01-02T12:28:07.086Z,5.70
2018-01-02T12:30:35.377Z,5.70
2018-01-02T12:33:03.673Z,5.70
2018-01-02T12:35:32.094Z,5.70
2018-01-02T12:38:00.451Z,5.70
2018-01-02T12:40:28.757Z,5.80
2018-01-02T12:42:57.039Z,5.80
2018-01-02T12:45:25.438Z,5.70
2018-01-02T12:47:53.723Z,5.80
2018-01-02T12:50:22.062Z,5.80
2018-01-02T12:52:51.132Z,5.80
2018-01-02T12:55:19.719Z,5.80
2018-01-02T12:57:48.010Z,5.80
2018-01-02T13:00:16.295Z,5.80
2018-01-02T13:02:45.004Z,5.90
2018-01-02T13:05:13.287Z,5.90
2018-01-02T13:07:41.582Z,6.00
2018-01-02T13:10:09.914Z,6.00
2018-01-02T13:12:38.206Z,6.00
2018-01-02T13:15:06.556Z,6.10
2018-01-02T13:17:34.834Z,6.00
2018-01-02T13:20:03.447Z,6.00
2018-01-02T13:22:31.731Z,6.00
2018-01-02T13:25:00.065Z,6.00
2018-01-02T13:27:28.354Z,6.00
2018-01-02T13:29:56.643Z,6.00
2018-01-02T13:32:24.978Z,6.00
2018-01-02T13:34:53.314Z,6.00
2018-01-02T13:37:21.628Z,6.00
2018-01-02T13:39:49.955Z,6.10
2018-01-02T13:42:18.263Z,6.10
2018-01-02T13:44:47.375Z,6.00
2018-01-02T13:47:16.422Z,5.90
2018-01-02T13:49:44.746Z,5.90
2018-01-02T13:52:13.250Z,5.90
2018-01-02T13:54:42.310Z,6.00
2018-01-02T13:57:10.603Z,5.90
2018-01-02T13:59:38.938Z,5.90
2018-01-02T14:02:07.267Z,5.90
2018-01-02T14:04:35.554Z,6.00
2018-01-02T14:07:04.004Z,6.00
2018-01-02T14:09:33.070Z,6.10
2018-01-02T14:12:01.420Z,6.10
2018-01-02T14:14:29.706Z,6.10
2018-01-02T14:16:58.809Z,6.10
2018-01-02T14:19:27.150Z,6.10
2018-01-02T14:21:55.434Z,6.10
2018-01-02T14:24:23.770Z,6.20
2018-01-02T14:26:52.158Z,6.20
2018-01-02T14:29:20.450Z,6.20
2018-01-02T14:31:48.798Z,6.20
2018-01-02T14:34:17.133Z,6.20
2018-01-02T14:36:45.474Z,6.30
2018-01-02T14:39:13.814Z,6.30
2018-01-02T14:41:42.151Z,6.20
2018-01-02T14:44:10.434Z,6.20
2018-01-02T14:46:38.799Z,6.20
2018-01-02T14:49:07.086Z,6.30
2018-01-02T14:51:36.134Z,6.10
2018-01-02T14:54:04.482Z,6.10
2018-01-02T14:56:32.763Z,6.10
2018-01-02T14:59:01.051Z,6.20
2018-01-02T15:01:29.386Z,6.20
2018-01-02T15:03:57.724Z,6.20
2018-01-02T15:06:26.010Z,6.20
2018-01-02T15:08:54.294Z,6.20
2018-01-02T15:11:22.625Z,6.20
2018-01-02T15:13:50.967Z,6.10
2018-01-02T15:16:19.315Z,6.10
2018-01-02T15:18:47.599Z,6.10
2018-01-02T15:21:15.891Z,6.20
2018-01-02T15:23:44.222Z,6.10
2018-01-02T15:26:12.510Z,6.20
2018-01-02T15:28:40.840Z,6.20
2018-01-02T15:31:09.943Z,6.10
2018-01-02T15:33:38.998Z,6.00
2018-01-02T15:36:07.338Z,6.00
2018-01-02T15:38:36.403Z,6.10
2018-01-02T15:41:04.735Z,6.10
2018-01-02T15:43:33.791Z,6.20
2018-01-02T15:46:02.150Z,6.20
2018-01-02T15:48:31.198Z,6.20
2018-01-02T15:50:59.554Z,6.10
2018-01-02T15:53:27.838Z,6.10
2018-01-02T15:55:56.134Z,6.10
2018-01-02T15:58:24.491Z,6.20
2018-01-02T16:00:52.786Z,6.20
2018-01-02T16:03:21.066Z,6.20
2018-01-02T16:05:49.451Z,6.20
2018-01-02T16:08:17.946Z,6.20
2018-01-02T16:10:46.226Z,6.20
2018-01-02T16:13:14.507Z,6.20
2018-01-02T16:15:42.841Z,6.20
2018-01-02T16:18:11.927Z,6.10
2018-01-02T16:20:40.229Z,6.10
2018-01-02T16:23:09.618Z,6.00
2018-01-02T16:25:37.902Z,6.00
2018-01-02T16:28:06.180Z,6.00
2018-01-02T16:30:34.514Z,6.00
2018-01-02T16:33:03.614Z,5.90
2018-01-02T16:35:31.946Z,5.90
2018-01-02T16:38:00.226Z,5.90
2018-01-02T16:40:28.670Z,5.90
2018-01-02T16:42:57.028Z,5.90
2018-01-02T16:45:25.306Z,5.80
2018-01-02T16:47:53.595Z,5.80
2018-01-02T16:50:21.942Z,5.90
2018-01-02T16:52:50.235Z,6.00
2018-01-02T16:55:19.335Z,6.00
2018-01-02T16:57:49.141Z,5.90
2018-01-02T17:00:17.478Z,5.90
2018-01-02T17:02:46.194Z,5.90
2018-01-02T17:05:14.530Z,5.90
2018-01-02T17:07:42.814Z,5.80
2018-01-02T17:10:11.094Z,5.70
2018-01-02T17:12:39.422Z,5.70
2018-01-02T17:15:08.530Z,5.50
2018-01-02T17:17:36.810Z,5.50
2018-01-02T17:20:05.862Z,5.50
2018-01-02T17:22:34.204Z,5.50
2018-01-02T17:25:02.486Z,5.40
2018-01-02T17:27:30.971Z,5.40
2018-01-02T17:29:59.263Z,5.40
2018-01-02T17:32:28.330Z,5.40
2018-01-02T17:34:56.662Z,5.30
2018-01-02T17:37:24.938Z,5.40
2018-01-02T17:39:53.282Z,5.40
2018-01-02T17:42:21.569Z,5.40
2018-01-02T17:44:49.899Z,5.40
2018-01-02T17:47:18.183Z,5.40
2018-01-02T17:49:46.518Z,5.40
2018-01-02T17:52:15.566Z,5.40
2018-01-02T17:54:43.859Z,5.40
2018-01-02T17:57:12.196Z,5.50
2018-01-02T17:59:40.478Z,5.40
2018-01-02T18:02:09.674Z,5.40
2018-01-02T18:04:37.954Z,5.40
2018-01-02T18:07:06.666Z,5.40
2018-01-02T18:09:36.454Z,5.40
2018-01-02T18:12:04.750Z,5.40
2018-01-02T18:14:34.814Z,5.50
2018-01-02T18:17:03.108Z,5.50
2018-01-02T18:19:31.487Z,5.50
2018-01-02T18:21:59.825Z,5.60
2018-01-02T18:24:28.114Z,5.50
2018-01-02T18:26:56.458Z,5.50
2018-01-02T18:29:24.738Z,5.60
2018-01-02T18:31:53.082Z,5.50
2018-01-02T18:34:21.427Z,5.50
2018-01-02T18:36:49.706Z,5.50
2018-01-02T18:39:18.047Z,5.60
2018-01-02T18:41:46.333Z,5.50
2018-01-02T18:44:14.666Z,5.40
2018-01-02T18:46:42.960Z,5.50
2018-01-02T18:49:11.282Z,5.50
2018-01-02T18:51:40.379Z,5.40
2018-01-02T18:54:08.713Z,5.40
2018-01-02T18:56:37.249Z,5.40
2018-01-02T18:59:05.542Z,5.40
2018-01-02T19:01:33.826Z,5.40
2018-01-02T19:04:02.426Z,5.40
2018-01-02T19:06:30.704Z,5.40
2018-01-02T19:08:58.995Z,5.40
2018-01-02T19:11:27.394Z,5.40
2018-01-02T19:13:55.735Z,5.50
2018-01-02T19:16:24.014Z,5.50
2018-01-02T19:18:52.359Z,5.40
2018-01-02T19:21:20.638Z,5.50
2018-01-02T19:23:48.922Z,5.40
2018-01-02T19:26:17.270Z,5.50
2018-01-02T19:28:46.342Z,5.40
2018-01-02T19:31:14.622Z,5.40
2018-01-02T19:33:42.963Z,5.40
2018-01-02T19:36:11.295Z,5.40
2018-01-02T19:38:39.579Z,5.40
2018-01-02T19:41:07.910Z,5.40
2018-01-02T19:43:36.957Z,5.40
2018-01-02T19:46:05.379Z,5.40
2018-01-02T19:48:33.662Z,5.40
2018-01-02T19:51:01.947Z,5.30
2018-01-02T19:53:30.278Z,5.30
2018-01-02T19:55:59.322Z,5.30
2018-01-02T19:58:27.649Z,5.30
2018-01-02T20:00:55.934Z,5.30
2018-01-02T20:03:24.298Z,5.40
2018-01-02T20:05:52.578Z,5.40
2018-01-02T20:08:20.858Z,5.40
2018-01-02T20:10:50.222Z,5.40
2018-01-02T20:13:18.591Z,5.40
2018-01-02T20:15:46.927Z,5.40
2018-01-02T20:18:21.546Z,5.40
2018-01-02T20:20:49.879Z,5.40
2018-01-02T20:23:18.210Z,5.40
2018-01-02T20:25:46.501Z,5.40
2018-01-02T20:28:14.844Z,5.40
2018-01-02T20:30:43.127Z,5.40
2018-01-02T20:33:12.251Z,5.40
2018-01-02T20:35:40.550Z,5.40
2018-01-02T20:38:08.932Z,5.40
2018-01-02T20:40:37.221Z,5.40
2018-01-02T20:43:05.497Z,5.40
2018-01-02T20:45:33.828Z,5.40
2018-01-02T20:48:02.135Z,5.40
2018-01-02T20:50:30.462Z,5.40
2018-01-02T20:52:58.737Z,5.40
2018-01-02T20:55:27.834Z,5.30
2018-01-02T20:57:56.166Z,5.20
2018-01-02T21:00:24.650Z,5.30
2018-01-02T21:02:52.930Z,5.30
2018-01-02T21:05:21.267Z,5.30
2018-01-02T21:07:49.877Z,5.30
2018-01-02T21:10:18.158Z,5.30
2018-01-02T21:12:46.460Z,5.30
2018-01-02T21:15:15.584Z,5.30
2018-01-02T21:17:44.627Z,5.30
2018-01-02T21:20:12.915Z,5.30
2018-01-02T21:22:41.250Z,5.20
2018-01-02T21:25:09.538Z,5.20
2018-01-02T21:27:37.866Z,5.20
2018-01-02T21:30:06.911Z,5.20
2018-01-02T21:32:35.199Z,5.20
2018-01-02T21:35:03.526Z,5.10
2018-01-02T21:37:31.898Z,5.20
2018-01-02T21:40:00.187Z,5.10
2018-01-02T21:42:28.524Z,5.10
2018-01-02T21:44:56.858Z,5.10
2018-01-02T21:47:25.133Z,5.10
2018-01-02T21:49:53.758Z,5.10
2018-01-02T21:52:22.043Z,5.10
2018-01-02T21:54:50.325Z,5.00
2018-01-02T21:57:18.650Z,5.10
2018-01-02T21:59:47.734Z,4.90
2018-01-02T22:02:16.061Z,4.90
2018-01-02T22:04:44.390Z,4.80
2018-01-02T22:07:12.671Z,4.90
2018-01-02T22:09:41.002Z,4.80
2018-01-02T22:12:10.054Z,4.70
2018-01-02T22:14:38.334Z,4.70
2018-01-02T22:17:06.671Z,4.60
2018-01-02T22:19:34.945Z,4.60
2018-01-02T22:22:03.285Z,4.50
2018-01-02T22:24:32.386Z,4.40
2018-01-02T22:27:01.547Z,4.30
2018-01-02T22:29:29.875Z,4.30
2018-01-02T22:31:58.158Z,4.30
2018-01-02T22:34:26.486Z,4.30
2018-01-02T22:36:54.772Z,4.30
2018-01-02T22:39:23.097Z,4.30
2018-01-02T22:41:51.380Z,4.30
2018-01-02T22:44:19.723Z,4.20
2018-01-02T22:46:48.762Z,4.30
2018-01-02T22:49:17.046Z,4.30
2018-01-02T22:51:45.378Z,4.20
2018-01-02T22:54:13.715Z,4.10
2018-01-02T22:56:42.058Z,4.00
2018-01-02T22:59:10.338Z,4.00
2018-01-02T23:01:38.666Z,4.00
2018-01-02T23:04:07.721Z,3.80
2018-01-02T23:06:36.054Z,3.90
2018-01-02T23:09:04.338Z,3.90
2018-01-02T23:11:32.670Z,4.00
2018-01-02T23:14:01.006Z,3.90
2018-01-02T23:16:29.338Z,3.90
2018-01-02T23:18:57.671Z,3.80
2018-01-02T23:21:25.998Z,3.80
2018-01-02T23:23:55.094Z,3.70
2018-01-02T23:26:23.377Z,3.70
2018-01-02T23:28:51.714Z,3.80
2018-01-02T23:31:20.046Z,3.70
2018-01-02T23:33:48.386Z,3.80
2018-01-02T23:36:16.718Z,3.70
2018-01-02T23:38:45.226Z,3.70
2018-01-02T23:41:13.510Z,3.70
2018-01-02T23:43:41.802Z,3.60
2018-01-02T23:46:10.134Z,3.50
2018-01-02T23:48:38.426Z,3.60
2018-01-02T23:51:06.721Z,3.60
2018-01-02T23:53:35.048Z,3.50
2018-01-02T23:56:03.327Z,3.50
2018-01-02T23:58:31.670Z,3.50
